Skip Navigation Links Skip Navigation Links

Current Weather

Phoenix Sky Harbor Intl, Phoenix, Ariz.

For information only: do not use for flight planning or navigation.
Latest weather
Observation time Friday, August 14, 2020 8:51 AM MST
Local time Friday, August 14, 2020 9:22 AM MST
Flight conditions Visual Meteorological Conditions
Winds
Wind direction East-Southeast (120°)
Wind speed 7 mph
Visibility 10 mi.
Sky condition
Ceiling unlimited
Cloud layer few clouds 16,000 ft.
Cloud layer scattered clouds 19,000 ft.
Cloud layer scattered clouds 25,000 ft.
Temperature 99°F
Dewpoint 53°F
Altimeter 29.86 in.Hg
Derived measurements
Relative humidity 22%
Heat index 99°F
Density altitude 3907 ft.
Sea-level pressure 29.79 in.Hg
Remarks
Automated weather observing station with precipitation discriminator.
METAR KPHX 141551Z 12006KT 10SM FEW160 SCT190 SCT250 37/12 A2986 RMK AO2 SLP087 T03720117

Settings

Location code

InnerDrive.Weather 4.0.6770.0 Release CLR 4.0.30319.42000
Copyright ©2018 Inner Drive Technology. All rights reserved. Portions Copyright ©1986-2018 David Braverman.

Find weather

Site navigation


Skip Navigation Links

Place info

Page info

PayPal - The safer, easier way to pay online!

Return home.

Copyright ©2020 Inner Drive Technology. Purveyors of fine, hand-crafted computer software. Page printed 2020-08-14T16:22:05 UTC.